sensor_id;sensor_type;location;lat;lon;timestamp;P1;durP1;ratioP1;P2;durP2;ratioP2
37309;SDS011;23195;47.744;7.358;2022-11-14T06:22:15;23.63;;;14.17;;
37309;SDS011;23195;47.744;7.358;2022-11-14T06:24:41;23.63;;;13.57;;
37309;SDS011;23195;47.744;7.358;2022-11-14T06:27:07;23.43;;;13.70;;
37309;SDS011;23195;47.744;7.358;2022-11-14T06:29:32;21.53;;;13.40;;
37309;SDS011;23195;47.744;7.358;2022-11-14T06:35:24;23.10;;;12.90;;
37309;SDS011;23195;47.744;7.358;2022-11-14T06:38:01;19.63;;;12.10;;
37309;SDS011;23195;47.744;7.358;2022-11-14T06:40:27;21.93;;;12.70;;
37309;SDS011;23195;47.744;7.358;2022-11-14T06:43:11;19.90;;;11.80;;
37309;SDS011;23195;47.744;7.358;2022-11-14T06:45:39;21.13;;;12.30;;
37309;SDS011;23195;47.744;7.358;2022-11-14T06:48:06;21.37;;;12.67;;
37309;SDS011;23195;47.744;7.358;2022-11-14T06:50:32;24.07;;;13.90;;
37309;SDS011;23195;47.744;7.358;2022-11-14T06:53:00;21.40;;;13.03;;
37309;SDS011;23195;47.744;7.358;2022-11-14T06:55:26;20.43;;;12.80;;
37309;SDS011;23195;47.744;7.358;2022-11-14T06:57:54;21.37;;;13.00;;
37309;SDS011;23195;47.744;7.358;2022-11-14T07:00:20;23.33;;;13.47;;
37309;SDS011;23195;47.744;7.358;2022-11-14T07:02:47;21.73;;;13.07;;
37309;SDS011;23195;47.744;7.358;2022-11-14T07:05:13;39.67;;;20.97;;
37309;SDS011;23195;47.744;7.358;2022-11-14T07:07:39;23.10;;;13.73;;
37309;SDS011;23195;47.744;7.358;2022-11-14T07:10:05;26.53;;;14.80;;
37309;SDS011;23195;47.744;7.358;2022-11-14T07:12:31;26.03;;;15.63;;
37309;SDS011;23195;47.744;7.358;2022-11-14T07:14:57;30.40;;;15.57;;
37309;SDS011;23195;47.744;7.358;2022-11-14T07:17:23;27.53;;;15.67;;
37309;SDS011;23195;47.744;7.358;2022-11-14T07:19:49;29.27;;;15.43;;
37309;SDS011;23195;47.744;7.358;2022-11-14T07:22:14;27.50;;;15.40;;
37309;SDS011;23195;47.744;7.358;2022-11-14T07:24:40;27.10;;;15.43;;
37309;SDS011;23195;47.744;7.358;2022-11-14T07:27:06;28.87;;;15.37;;
37309;SDS011;23195;47.744;7.358;2022-11-14T07:29:35;26.47;;;14.83;;
37309;SDS011;23195;47.744;7.358;2022-11-14T07:32:00;28.57;;;15.20;;
37309;SDS011;23195;47.744;7.358;2022-11-14T07:34:26;28.27;;;15.23;;
37309;SDS011;23195;47.744;7.358;2022-11-14T07:36:53;28.10;;;14.90;;
37309;SDS011;23195;47.744;7.358;2022-11-14T07:39:19;26.70;;;13.97;;
37309;SDS011;23195;47.744;7.358;2022-11-14T07:41:45;31.03;;;14.03;;
37309;SDS011;23195;47.744;7.358;2022-11-14T07:44:11;25.60;;;14.00;;
37309;SDS011;23195;47.744;7.358;2022-11-14T07:46:36;27.53;;;15.67;;
37309;SDS011;23195;47.744;7.358;2022-11-14T07:49:02;22.80;;;12.57;;
37309;SDS011;23195;47.744;7.358;2022-11-14T07:51:29;21.80;;;12.90;;
37309;SDS011;23195;47.744;7.358;2022-11-14T07:53:56;25.17;;;12.80;;
37309;SDS011;23195;47.744;7.358;2022-11-14T07:56:21;21.50;;;12.17;;
37309;SDS011;23195;47.744;7.358;2022-11-14T07:58:49;19.53;;;11.13;;
37309;SDS011;23195;47.744;7.358;2022-11-14T08:01:15;20.03;;;11.77;;
37309;SDS011;23195;47.744;7.358;2022-11-14T08:03:41;20.23;;;11.67;;
37309;SDS011;23195;47.744;7.358;2022-11-14T08:06:09;22.23;;;11.57;;
37309;SDS011;23195;47.744;7.358;2022-11-14T08:08:36;21.90;;;12.63;;
37309;SDS011;23195;47.744;7.358;2022-11-14T08:11:02;21.37;;;13.83;;
37309;SDS011;23195;47.744;7.358;2022-11-14T08:13:28;21.67;;;12.83;;
37309;SDS011;23195;47.744;7.358;2022-11-14T08:16:02;20.03;;;11.90;;
37309;SDS011;23195;47.744;7.358;2022-11-14T08:18:32;20.87;;;13.60;;
37309;SDS011;23195;47.744;7.358;2022-11-14T08:21:06;22.13;;;12.70;;
37309;SDS011;23195;47.744;7.358;2022-11-14T08:23:34;28.53;;;15.43;;
37309;SDS011;23195;47.744;7.358;2022-11-14T08:26:03;27.77;;;15.27;;
37309;SDS011;23195;47.744;7.358;2022-11-14T08:28:29;29.00;;;15.13;;
37309;SDS011;23195;47.744;7.358;2022-11-14T08:30:59;30.63;;;15.20;;
37309;SDS011;23195;47.744;7.358;2022-11-14T08:33:26;33.73;;;17.03;;
37309;SDS011;23195;47.744;7.358;2022-11-14T08:35:52;35.23;;;16.83;;
37309;SDS011;23195;47.744;7.358;2022-11-14T08:38:17;68.37;;;26.23;;
37309;SDS011;23195;47.744;7.358;2022-11-14T08:40:43;59.30;;;23.07;;
37309;SDS011;23195;47.744;7.358;2022-11-14T08:43:09;43.90;;;18.80;;
37309;SDS011;23195;47.744;7.358;2022-11-14T08:45:35;32.70;;;17.60;;
37309;SDS011;23195;47.744;7.358;2022-11-14T08:48:01;25.70;;;15.17;;
37309;SDS011;23195;47.744;7.358;2022-11-14T08:50:27;20.00;;;12.80;;
37309;SDS011;23195;47.744;7.358;2022-11-14T08:52:53;20.33;;;12.80;;
37309;SDS011;23195;47.744;7.358;2022-11-14T08:55:19;23.00;;;13.37;;
37309;SDS011;23195;47.744;7.358;2022-11-14T08:57:45;20.13;;;13.17;;
37309;SDS011;23195;47.744;7.358;2022-11-14T09:00:11;19.97;;;12.20;;
37309;SDS011;23195;47.744;7.358;2022-11-14T09:02:37;23.60;;;13.30;;
37309;SDS011;23195;47.744;7.358;2022-11-14T09:05:03;19.83;;;12.60;;
37309;SDS011;23195;47.744;7.358;2022-11-14T09:07:29;25.60;;;12.90;;
37309;SDS011;23195;47.744;7.358;2022-11-14T09:09:54;21.53;;;12.40;;
37309;SDS011;23195;47.744;7.358;2022-11-14T09:12:20;20.53;;;12.70;;
37309;SDS011;23195;47.744;7.358;2022-11-14T09:14:46;22.67;;;12.67;;
37309;SDS011;23195;47.744;7.358;2022-11-14T09:17:12;19.40;;;12.50;;
37309;SDS011;23195;47.744;7.358;2022-11-14T09:19:37;20.27;;;12.43;;
37309;SDS011;23195;47.744;7.358;2022-11-14T09:22:03;19.93;;;11.20;;
37309;SDS011;23195;47.744;7.358;2022-11-14T09:24:29;23.77;;;12.87;;
37309;SDS011;23195;47.744;7.358;2022-11-14T09:26:55;19.83;;;11.50;;
37309;SDS011;23195;47.744;7.358;2022-11-14T09:29:20;20.37;;;12.17;;
37309;SDS011;23195;47.744;7.358;2022-11-14T09:31:46;18.40;;;11.53;;
37309;SDS011;23195;47.744;7.358;2022-11-14T09:34:12;25.13;;;11.60;;
37309;SDS011;23195;47.744;7.358;2022-11-14T09:36:38;18.33;;;11.60;;
37309;SDS011;23195;47.744;7.358;2022-11-14T09:39:03;18.27;;;9.87;;
37309;SDS011;23195;47.744;7.358;2022-11-14T09:46:58;13.90;;;8.53;;
37309;SDS011;23195;47.744;7.358;2022-11-14T09:49:30;16.43;;;10.60;;
37309;SDS011;23195;47.744;7.358;2022-11-14T09:52:05;15.53;;;9.93;;
37309;SDS011;23195;47.744;7.358;2022-11-14T09:54:45;19.90;;;10.93;;
37309;SDS011;23195;47.744;7.358;2022-11-14T09:57:18;21.10;;;11.30;;
37309;SDS011;23195;47.744;7.358;2022-11-14T09:59:45;17.20;;;10.63;;
37309;SDS011;23195;47.744;7.358;2022-11-14T10:18:31;19.50;;;10.93;;
37309;SDS011;23195;47.744;7.358;2022-11-14T10:24:17;23.43;;;12.63;;
37309;SDS011;23195;47.744;7.358;2022-11-14T10:27:05;18.77;;;10.37;;
37309;SDS011;23195;47.744;7.358;2022-11-14T10:32:35;13.13;;;9.47;;
37309;SDS011;23195;47.744;7.358;2022-11-14T10:35:20;15.87;;;10.07;;
37309;SDS011;23195;47.744;7.358;2022-11-14T10:40:50;17.47;;;10.53;;
37309;SDS011;23195;47.744;7.358;2022-11-14T10:48:40;15.73;;;9.00;;
37309;SDS011;23195;47.744;7.358;2022-11-14T10:51:20;13.27;;;7.70;;
37309;SDS011;23195;47.744;7.358;2022-11-14T10:53:59;14.03;;;8.20;;
37309;SDS011;23195;47.744;7.358;2022-11-14T10:56:33;12.00;;;7.90;;
37309;SDS011;23195;47.744;7.358;2022-11-14T10:58:59;12.00;;;8.33;;
37309;SDS011;23195;47.744;7.358;2022-11-14T11:01:35;12.93;;;8.40;;
37309;SDS011;23195;47.744;7.358;2022-11-14T11:06:36;15.87;;;8.27;;
37309;SDS011;23195;47.744;7.358;2022-11-14T11:09:10;18.20;;;9.83;;
37309;SDS011;23195;47.744;7.358;2022-11-14T11:12:16;13.47;;;8.27;;
37309;SDS011;23195;47.744;7.358;2022-11-14T11:14:44;10.60;;;8.27;;
37309;SDS011;23195;47.744;7.358;2022-11-14T11:17:19;17.73;;;9.30;;
37309;SDS011;23195;47.744;7.358;2022-11-14T11:19:46;12.67;;;8.07;;
37309;SDS011;23195;47.744;7.358;2022-11-14T11:22:27;13.67;;;8.23;;
37309;SDS011;23195;47.744;7.358;2022-11-14T11:25:21;11.43;;;7.97;;
37309;SDS011;23195;47.744;7.358;2022-11-14T11:28:14;12.83;;;8.73;;
37309;SDS011;23195;47.744;7.358;2022-11-14T11:30:39;14.00;;;8.67;;
37309;SDS011;23195;47.744;7.358;2022-11-14T11:35:44;15.30;;;8.73;;
37309;SDS011;23195;47.744;7.358;2022-11-14T11:38:12;13.43;;;9.30;;
37309;SDS011;23195;47.744;7.358;2022-11-14T11:40:42;14.40;;;9.40;;
37309;SDS011;23195;47.744;7.358;2022-11-14T11:45:45;12.37;;;8.67;;
37309;SDS011;23195;47.744;7.358;2022-11-14T11:50:46;16.20;;;8.30;;
37309;SDS011;23195;47.744;7.358;2022-11-14T11:55:48;12.20;;;8.10;;
37309;SDS011;23195;47.744;7.358;2022-11-14T12:00:59;11.50;;;7.27;;
37309;SDS011;23195;47.744;7.358;2022-11-14T12:03:25;10.57;;;7.20;;
37309;SDS011;23195;47.744;7.358;2022-11-14T12:06:02;12.63;;;7.50;;
37309;SDS011;23195;47.744;7.358;2022-11-14T12:08:58;13.83;;;7.60;;
37309;SDS011;23195;47.744;7.358;2022-11-14T12:11:49;10.83;;;6.60;;
37309;SDS011;23195;47.744;7.358;2022-11-14T12:29:24;9.87;;;6.20;;
37309;SDS011;23195;47.744;7.358;2022-11-14T12:32:14;9.80;;;6.40;;
37309;SDS011;23195;47.744;7.358;2022-11-14T12:34:48;9.77;;;6.03;;
37309;SDS011;23195;47.744;7.358;2022-11-14T12:39:42;11.00;;;5.50;;
37309;SDS011;23195;47.744;7.358;2022-11-14T12:42:24;8.30;;;5.33;;
37309;SDS011;23195;47.744;7.358;2022-11-14T12:44:50;13.07;;;5.90;;
37309;SDS011;23195;47.744;7.358;2022-11-14T12:47:17;8.87;;;5.47;;
37309;SDS011;23195;47.744;7.358;2022-11-14T13:00:34;9.80;;;4.97;;
37309;SDS011;23195;47.744;7.358;2022-11-14T13:11:44;7.13;;;4.43;;
37309;SDS011;23195;47.744;7.358;2022-11-14T13:14:29;9.10;;;4.70;;
37309;SDS011;23195;47.744;7.358;2022-11-14T13:17:30;11.53;;;4.80;;
37309;SDS011;23195;47.744;7.358;2022-11-14T13:20:30;6.23;;;4.47;;
37309;SDS011;23195;47.744;7.358;2022-11-14T13:28:51;6.23;;;4.70;;
37309;SDS011;23195;47.744;7.358;2022-11-14T13:31:21;6.93;;;4.67;;
37309;SDS011;23195;47.744;7.358;2022-11-14T13:33:49;6.43;;;4.60;;
37309;SDS011;23195;47.744;7.358;2022-11-14T13:39:21;5.40;;;4.00;;
37309;SDS011;23195;47.744;7.358;2022-11-14T13:44:51;7.37;;;4.80;;
37309;SDS011;23195;47.744;7.358;2022-11-14T13:51:04;13.20;;;6.10;;
37309;SDS011;23195;47.744;7.358;2022-11-14T13:53:33;8.50;;;5.93;;
37309;SDS011;23195;47.744;7.358;2022-11-14T14:01:33;8.80;;;6.20;;
37309;SDS011;23195;47.744;7.358;2022-11-14T14:06:51;9.53;;;5.67;;
37309;SDS011;23195;47.744;7.358;2022-11-14T14:12:19;14.30;;;7.70;;
37309;SDS011;23195;47.744;7.358;2022-11-14T14:29:28;14.67;;;9.07;;
37309;SDS011;23195;47.744;7.358;2022-11-14T14:32:08;14.37;;;8.60;;
37309;SDS011;23195;47.744;7.358;2022-11-14T14:34:37;14.20;;;9.27;;
37309;SDS011;23195;47.744;7.358;2022-11-14T14:37:12;13.97;;;9.07;;
37309;SDS011;23195;47.744;7.358;2022-11-14T14:40:00;19.43;;;10.50;;
37309;SDS011;23195;47.744;7.358;2022-11-14T14:42:34;19.50;;;9.37;;
37309;SDS011;23195;47.744;7.358;2022-11-14T14:45:03;19.33;;;8.90;;
37309;SDS011;23195;47.744;7.358;2022-11-14T14:47:35;13.00;;;8.33;;
37309;SDS011;23195;47.744;7.358;2022-11-14T14:50:05;10.43;;;7.73;;
37309;SDS011;23195;47.744;7.358;2022-11-14T14:52:41;14.43;;;7.90;;
37309;SDS011;23195;47.744;7.358;2022-11-14T14:55:17;12.67;;;7.40;;
37309;SDS011;23195;47.744;7.358;2022-11-14T14:57:48;15.63;;;7.23;;
37309;SDS011;23195;47.744;7.358;2022-11-14T15:00:19;11.30;;;6.70;;
37309;SDS011;23195;47.744;7.358;2022-11-14T15:02:54;12.17;;;6.47;;
37309;SDS011;23195;47.744;7.358;2022-11-14T15:05:21;8.67;;;5.90;;
37309;SDS011;23195;47.744;7.358;2022-11-14T15:07:56;9.83;;;6.13;;
37309;SDS011;23195;47.744;7.358;2022-11-14T15:10:25;9.07;;;5.50;;
37309;SDS011;23195;47.744;7.358;2022-11-14T15:12:54;8.40;;;5.57;;
37309;SDS011;23195;47.744;7.358;2022-11-14T15:15:20;7.80;;;5.73;;
37309;SDS011;23195;47.744;7.358;2022-11-14T15:17:49;10.17;;;5.60;;
37309;SDS011;23195;47.744;7.358;2022-11-14T15:20:22;10.47;;;6.23;;
37309;SDS011;23195;47.744;7.358;2022-11-14T15:25:34;11.50;;;6.87;;
37309;SDS011;23195;47.744;7.358;2022-11-14T15:28:01;12.13;;;8.23;;
37309;SDS011;23195;47.744;7.358;2022-11-14T15:30:32;11.20;;;7.23;;
37309;SDS011;23195;47.744;7.358;2022-11-14T15:33:03;11.97;;;6.97;;
37309;SDS011;23195;47.744;7.358;2022-11-14T15:35:31;11.53;;;6.77;;
37309;SDS011;23195;47.744;7.358;2022-11-14T15:40:28;12.23;;;6.73;;
37309;SDS011;23195;47.744;7.358;2022-11-14T15:42:55;12.83;;;7.30;;
37309;SDS011;23195;47.744;7.358;2022-11-14T15:45:38;11.00;;;6.97;;
37309;SDS011;23195;47.744;7.358;2022-11-14T15:48:14;12.63;;;7.23;;
37309;SDS011;23195;47.744;7.358;2022-11-14T15:50:42;10.23;;;6.10;;
37309;SDS011;23195;47.744;7.358;2022-11-14T15:53:15;13.10;;;6.20;;
37309;SDS011;23195;47.744;7.358;2022-11-14T15:55:47;12.33;;;6.40;;
37309;SDS011;23195;47.744;7.358;2022-11-14T15:58:13;11.67;;;6.20;;
37309;SDS011;23195;47.744;7.358;2022-11-14T16:00:41;11.07;;;5.90;;
37309;SDS011;23195;47.744;7.358;2022-11-14T16:03:15;14.13;;;7.00;;
37309;SDS011;23195;47.744;7.358;2022-11-14T16:05:46;10.77;;;6.17;;
37309;SDS011;23195;47.744;7.358;2022-11-14T16:08:14;10.07;;;6.63;;
37309;SDS011;23195;47.744;7.358;2022-11-14T16:10:40;9.70;;;6.53;;
37309;SDS011;23195;47.744;7.358;2022-11-14T16:13:08;12.90;;;6.20;;
37309;SDS011;23195;47.744;7.358;2022-11-14T16:15:35;9.00;;;5.73;;
37309;SDS011;23195;47.744;7.358;2022-11-14T16:18:02;12.07;;;6.20;;
37309;SDS011;23195;47.744;7.358;2022-11-14T16:20:29;9.30;;;5.97;;
37309;SDS011;23195;47.744;7.358;2022-11-14T16:22:58;11.50;;;5.73;;
37309;SDS011;23195;47.744;7.358;2022-11-14T16:25:29;9.43;;;5.27;;
37309;SDS011;23195;47.744;7.358;2022-11-14T16:27:55;7.40;;;4.83;;
37309;SDS011;23195;47.744;7.358;2022-11-14T16:30:22;9.13;;;5.40;;
37309;SDS011;23195;47.744;7.358;2022-11-14T16:32:51;10.47;;;5.77;;
37309;SDS011;23195;47.744;7.358;2022-11-14T16:35:20;8.63;;;6.20;;
37309;SDS011;23195;47.744;7.358;2022-11-14T16:37:48;9.83;;;5.90;;
37309;SDS011;23195;47.744;7.358;2022-11-14T16:40:16;11.13;;;6.13;;
37309;SDS011;23195;47.744;7.358;2022-11-14T16:42:48;8.80;;;5.80;;
37309;SDS011;23195;47.744;7.358;2022-11-14T16:45:14;9.50;;;6.30;;
37309;SDS011;23195;47.744;7.358;2022-11-14T16:47:44;11.40;;;6.37;;
37309;SDS011;23195;47.744;7.358;2022-11-14T16:50:10;12.67;;;6.50;;
37309;SDS011;23195;47.744;7.358;2022-11-14T16:52:36;12.13;;;6.87;;
37309;SDS011;23195;47.744;7.358;2022-11-14T16:55:08;12.87;;;7.07;;
37309;SDS011;23195;47.744;7.358;2022-11-14T16:57:36;9.00;;;6.70;;
37309;SDS011;23195;47.744;7.358;2022-11-14T17:00:03;14.60;;;7.47;;
37309;SDS011;23195;47.744;7.358;2022-11-14T17:02:30;15.33;;;7.47;;
37309;SDS011;23195;47.744;7.358;2022-11-14T17:04:58;13.43;;;6.87;;
37309;SDS011;23195;47.744;7.358;2022-11-14T17:07:24;13.77;;;7.03;;
37309;SDS011;23195;47.744;7.358;2022-11-14T17:09:54;18.93;;;10.43;;
37309;SDS011;23195;47.744;7.358;2022-11-14T17:12:20;23.37;;;11.67;;
37309;SDS011;23195;47.744;7.358;2022-11-14T17:14:46;12.33;;;6.87;;
37309;SDS011;23195;47.744;7.358;2022-11-14T17:17:14;10.97;;;7.70;;
37309;SDS011;23195;47.744;7.358;2022-11-14T17:19:40;14.07;;;7.33;;
37309;SDS011;23195;47.744;7.358;2022-11-14T17:22:13;14.87;;;9.13;;
37309;SDS011;23195;47.744;7.358;2022-11-14T17:24:40;9.83;;;6.23;;
37309;SDS011;23195;47.744;7.358;2022-11-14T17:27:06;14.40;;;6.80;;
37309;SDS011;23195;47.744;7.358;2022-11-14T17:29:32;12.13;;;6.20;;
37309;SDS011;23195;47.744;7.358;2022-11-14T17:32:01;9.30;;;6.53;;
37309;SDS011;23195;47.744;7.358;2022-11-14T17:34:29;9.93;;;7.30;;
37309;SDS011;23195;47.744;7.358;2022-11-14T17:36:56;11.10;;;7.50;;
37309;SDS011;23195;47.744;7.358;2022-11-14T17:39:21;10.63;;;7.00;;
37309;SDS011;23195;47.744;7.358;2022-11-14T17:41:48;10.40;;;7.27;;
37309;SDS011;23195;47.744;7.358;2022-11-14T17:44:14;12.27;;;7.10;;
37309;SDS011;23195;47.744;7.358;2022-11-14T17:46:40;11.97;;;7.77;;
37309;SDS011;23195;47.744;7.358;2022-11-14T17:49:06;11.93;;;6.93;;
37309;SDS011;23195;47.744;7.358;2022-11-14T17:51:31;13.77;;;7.73;;
37309;SDS011;23195;47.744;7.358;2022-11-14T17:53:57;12.50;;;7.37;;
37309;SDS011;23195;47.744;7.358;2022-11-14T17:56:24;11.10;;;7.37;;
37309;SDS011;23195;47.744;7.358;2022-11-14T17:58:51;11.30;;;6.37;;
37309;SDS011;23195;47.744;7.358;2022-11-14T18:01:18;10.97;;;7.60;;
37309;SDS011;23195;47.744;7.358;2022-11-14T18:03:46;9.23;;;5.83;;
37309;SDS011;23195;47.744;7.358;2022-11-14T18:06:17;13.03;;;6.70;;
37309;SDS011;23195;47.744;7.358;2022-11-14T18:08:44;9.60;;;5.73;;
37309;SDS011;23195;47.744;7.358;2022-11-14T18:11:11;11.63;;;6.23;;
37309;SDS011;23195;47.744;7.358;2022-11-14T18:13:38;12.43;;;6.30;;
37309;SDS011;23195;47.744;7.358;2022-11-14T18:18:33;7.67;;;5.60;;
37309;SDS011;23195;47.744;7.358;2022-11-14T18:23:31;10.63;;;6.27;;
37309;SDS011;23195;47.744;7.358;2022-11-14T18:25:59;9.17;;;5.93;;
37309;SDS011;23195;47.744;7.358;2022-11-14T18:28:25;8.27;;;6.10;;
37309;SDS011;23195;47.744;7.358;2022-11-14T18:30:54;10.47;;;6.87;;
37309;SDS011;23195;47.744;7.358;2022-11-14T18:33:20;7.97;;;5.87;;
37309;SDS011;23195;47.744;7.358;2022-11-14T18:35:59;10.63;;;6.03;;
37309;SDS011;23195;47.744;7.358;2022-11-14T18:38:28;10.23;;;6.97;;
37309;SDS011;23195;47.744;7.358;2022-11-14T18:40:55;14.10;;;8.07;;
37309;SDS011;23195;47.744;7.358;2022-11-14T18:43:22;10.63;;;7.13;;
37309;SDS011;23195;47.744;7.358;2022-11-14T18:45:47;12.50;;;6.73;;
37309;SDS011;23195;47.744;7.358;2022-11-14T18:50:52;9.27;;;6.67;;
37309;SDS011;23195;47.744;7.358;2022-11-14T18:53:31;9.57;;;5.50;;
37309;SDS011;23195;47.744;7.358;2022-11-14T18:56:07;9.37;;;6.30;;
37309;SDS011;23195;47.744;7.358;2022-11-14T18:58:55;6.90;;;5.40;;
37309;SDS011;23195;47.744;7.358;2022-11-14T19:01:22;10.17;;;6.80;;
37309;SDS011;23195;47.744;7.358;2022-11-14T19:03:57;8.40;;;5.23;;
37309;SDS011;23195;47.744;7.358;2022-11-14T19:06:24;8.63;;;6.00;;
37309;SDS011;23195;47.744;7.358;2022-11-14T19:08:57;8.33;;;5.83;;
37309;SDS011;23195;47.744;7.358;2022-11-14T19:11:24;8.77;;;5.43;;
37309;SDS011;23195;47.744;7.358;2022-11-14T19:14:08;11.90;;;5.77;;
37309;SDS011;23195;47.744;7.358;2022-11-14T19:16:34;11.53;;;6.03;;
37309;SDS011;23195;47.744;7.358;2022-11-14T19:19:01;10.33;;;5.00;;
37309;SDS011;23195;47.744;7.358;2022-11-14T19:21:28;7.80;;;5.20;;
37309;SDS011;23195;47.744;7.358;2022-11-14T19:23:54;6.17;;;4.40;;
37309;SDS011;23195;47.744;7.358;2022-11-14T19:26:21;7.37;;;4.90;;
37309;SDS011;23195;47.744;7.358;2022-11-14T19:28:47;8.67;;;4.23;;
37309;SDS011;23195;47.744;7.358;2022-11-14T19:31:13;7.80;;;4.67;;
37309;SDS011;23195;47.744;7.358;2022-11-14T19:33:40;6.43;;;4.60;;
37309;SDS011;23195;47.744;7.358;2022-11-14T19:36:06;7.03;;;4.97;;
37309;SDS011;23195;47.744;7.358;2022-11-14T19:38:35;6.80;;;4.73;;
37309;SDS011;23195;47.744;7.358;2022-11-14T19:41:05;6.93;;;4.90;;
37309;SDS011;23195;47.744;7.358;2022-11-14T19:43:38;8.47;;;4.80;;
37309;SDS011;23195;47.744;7.358;2022-11-14T19:46:05;8.40;;;4.73;;
37309;SDS011;23195;47.744;7.358;2022-11-14T19:48:35;6.57;;;4.43;;
37309;SDS011;23195;47.744;7.358;2022-11-14T19:51:02;8.33;;;4.97;;
37309;SDS011;23195;47.744;7.358;2022-11-14T19:53:31;9.23;;;5.13;;
37309;SDS011;23195;47.744;7.358;2022-11-14T19:56:03;8.63;;;4.63;;
37309;SDS011;23195;47.744;7.358;2022-11-14T19:58:30;8.00;;;4.93;;
37309;SDS011;23195;47.744;7.358;2022-11-14T20:01:03;9.03;;;4.83;;
37309;SDS011;23195;47.744;7.358;2022-11-14T20:03:31;6.97;;;4.87;;
37309;SDS011;23195;47.744;7.358;2022-11-14T20:05:56;7.80;;;5.03;;
37309;SDS011;23195;47.744;7.358;2022-11-14T20:08:22;7.67;;;5.00;;
37309;SDS011;23195;47.744;7.358;2022-11-14T20:11:00;9.13;;;4.77;;
37309;SDS011;23195;47.744;7.358;2022-11-14T20:13:34;8.70;;;5.87;;
37309;SDS011;23195;47.744;7.358;2022-11-14T20:16:08;8.90;;;5.70;;
37309;SDS011;23195;47.744;7.358;2022-11-14T20:18:39;10.87;;;5.57;;
37309;SDS011;23195;47.744;7.358;2022-11-14T20:21:06;17.33;;;13.90;;
37309;SDS011;23195;47.744;7.358;2022-11-14T20:23:35;9.30;;;5.90;;
37309;SDS011;23195;47.744;7.358;2022-11-14T20:26:02;6.70;;;5.07;;
37309;SDS011;23195;47.744;7.358;2022-11-14T20:28:29;6.37;;;4.50;;
37309;SDS011;23195;47.744;7.358;2022-11-14T20:30:58;7.90;;;4.93;;
37309;SDS011;23195;47.744;7.358;2022-11-14T20:33:28;9.47;;;5.30;;
37309;SDS011;23195;47.744;7.358;2022-11-14T20:35:54;8.07;;;4.63;;
37309;SDS011;23195;47.744;7.358;2022-11-14T20:38:26;7.23;;;5.10;;
37309;SDS011;23195;47.744;7.358;2022-11-14T20:40:55;8.37;;;4.70;;
37309;SDS011;23195;47.744;7.358;2022-11-14T20:43:23;7.97;;;5.80;;
37309;SDS011;23195;47.744;7.358;2022-11-14T20:48:29;8.87;;;5.23;;
37309;SDS011;23195;47.744;7.358;2022-11-14T20:51:03;7.37;;;5.60;;
37309;SDS011;23195;47.744;7.358;2022-11-14T20:53:49;5.43;;;4.20;;
37309;SDS011;23195;47.744;7.358;2022-11-14T20:56:16;6.80;;;4.73;;
37309;SDS011;23195;47.744;7.358;2022-11-14T20:58:43;5.87;;;4.10;;
37309;SDS011;23195;47.744;7.358;2022-11-14T21:01:10;9.00;;;4.50;;
37309;SDS011;23195;47.744;7.358;2022-11-14T21:03:37;12.27;;;5.03;;
37309;SDS011;23195;47.744;7.358;2022-11-14T21:06:03;8.33;;;4.50;;
37309;SDS011;23195;47.744;7.358;2022-11-14T21:08:32;6.87;;;4.33;;
37309;SDS011;23195;47.744;7.358;2022-11-14T21:11:00;8.83;;;4.40;;
37309;SDS011;23195;47.744;7.358;2022-11-14T21:13:28;7.73;;;4.77;;
37309;SDS011;23195;47.744;7.358;2022-11-14T21:16:13;6.83;;;4.43;;
37309;SDS011;23195;47.744;7.358;2022-11-14T21:18:41;7.60;;;4.40;;
37309;SDS011;23195;47.744;7.358;2022-11-14T21:21:08;6.53;;;4.23;;
37309;SDS011;23195;47.744;7.358;2022-11-14T21:23:45;6.37;;;4.33;;
37309;SDS011;23195;47.744;7.358;2022-11-14T21:26:16;5.70;;;4.30;;
37309;SDS011;23195;47.744;7.358;2022-11-14T21:28:45;8.97;;;4.23;;
37309;SDS011;23195;47.744;7.358;2022-11-14T21:31:16;7.07;;;4.40;;
37309;SDS011;23195;47.744;7.358;2022-11-14T21:33:47;9.03;;;4.33;;
37309;SDS011;23195;47.744;7.358;2022-11-14T21:36:15;10.70;;;4.77;;
37309;SDS011;23195;47.744;7.358;2022-11-14T21:38:41;6.80;;;4.90;;
37309;SDS011;23195;47.744;7.358;2022-11-14T21:41:09;6.27;;;4.47;;
37309;SDS011;23195;47.744;7.358;2022-11-14T21:43:36;7.00;;;4.90;;
37309;SDS011;23195;47.744;7.358;2022-11-14T21:46:03;6.70;;;4.70;;
37309;SDS011;23195;47.744;7.358;2022-11-14T21:48:31;7.37;;;4.57;;
37309;SDS011;23195;47.744;7.358;2022-11-14T21:51:06;10.97;;;4.97;;
37309;SDS011;23195;47.744;7.358;2022-11-14T21:53:35;6.70;;;4.20;;
37309;SDS011;23195;47.744;7.358;2022-11-14T21:56:08;7.43;;;4.63;;
